createdAt,value
2019-05-06T00:00:26.753Z,20.32
2019-05-06T00:05:25.559Z,18.27
2019-05-06T00:07:55.132Z,18.80
2019-05-06T00:10:27.270Z,16.30
2019-05-06T00:12:57.238Z,20.35
2019-05-06T00:15:28.037Z,21.10
2019-05-06T00:17:57.535Z,20.50
2019-05-06T00:20:27.038Z,24.18
2019-05-06T00:22:58.099Z,16.60
2019-05-06T00:25:31.536Z,19.23
2019-05-06T00:28:19.117Z,20.40
2019-05-06T00:30:50.125Z,21.52
2019-05-06T00:33:19.474Z,21.00
2019-05-06T00:35:48.817Z,19.98
2019-05-06T00:38:18.164Z,22.63
2019-05-06T00:40:57.917Z,26.17
2019-05-06T00:43:27.280Z,16.67
2019-05-06T00:45:56.628Z,24.90
2019-05-06T00:48:26.046Z,21.25
2019-05-06T00:50:55.459Z,19.75
2019-05-06T00:53:29.379Z,20.55
2019-05-06T00:55:58.798Z,24.02
2019-05-06T00:58:28.167Z,23.57
2019-05-06T01:00:57.585Z,21.40
2019-05-06T01:03:26.942Z,18.87
2019-05-06T01:05:56.376Z,21.45
2019-05-06T01:08:27.645Z,20.52
2019-05-06T01:10:57.099Z,20.97
2019-05-06T01:13:28.095Z,18.67
2019-05-06T01:15:57.465Z,21.57
2019-05-06T01:18:26.821Z,20.72
2019-05-06T01:21:11.102Z,23.55
2019-05-06T01:23:43.944Z,18.52
2019-05-06T01:26:15.317Z,21.23
2019-05-06T01:28:45.615Z,29.43
2019-05-06T01:31:15.300Z,24.40
2019-05-06T01:33:45.729Z,24.12
2019-05-06T01:36:15.103Z,22.48
2019-05-06T01:38:46.307Z,23.22
2019-05-06T01:41:33.826Z,28.10
2019-05-06T01:44:04.225Z,31.68
2019-05-06T01:46:34.075Z,25.08
2019-05-06T01:49:04.211Z,30.72
2019-05-06T01:51:34.766Z,32.95
2019-05-06T01:54:04.583Z,35.60
2019-05-06T01:56:33.938Z,30.45
2019-05-06T01:59:04.586Z,46.20
2019-05-06T02:01:34.464Z,39.20
2019-05-06T02:04:05.927Z,33.78
2019-05-06T02:06:35.325Z,40.58
2019-05-06T02:09:09.546Z,37.15
2019-05-06T02:11:38.966Z,39.20
2019-05-06T02:14:08.424Z,36.98
2019-05-06T02:16:37.852Z,35.55
2019-05-06T02:19:07.194Z,29.42
2019-05-06T02:21:38.220Z,29.92
2019-05-06T02:24:24.411Z,34.00
2019-05-06T02:26:54.368Z,27.22
2019-05-06T02:29:29.216Z,30.00
2019-05-06T02:32:19.924Z,33.73
2019-05-06T02:34:36.709Z,35.55
2019-05-06T02:37:25.437Z,25.80
2019-05-06T02:39:55.006Z,26.23
2019-05-06T02:42:24.372Z,31.52
2019-05-06T02:44:54.364Z,28.05
2019-05-06T02:47:37.841Z,26.87
2019-05-06T02:50:09.166Z,27.48
2019-05-06T02:52:38.536Z,29.17
2019-05-06T02:55:08.123Z,25.23
2019-05-06T02:57:37.568Z,25.00
2019-05-06T03:00:13.144Z,24.72
2019-05-06T03:02:47.985Z,26.12
2019-05-06T03:05:14.860Z,28.27
2019-05-06T03:07:44.237Z,26.97
2019-05-06T03:10:15.835Z,24.98
2019-05-06T03:12:45.199Z,23.15
2019-05-06T03:15:16.861Z,20.12
2019-05-06T03:17:46.594Z,26.77
2019-05-06T03:20:37.206Z,24.32
2019-05-06T03:23:13.973Z,22.73
2019-05-06T03:25:44.131Z,20.52
2019-05-06T03:28:13.601Z,21.65
2019-05-06T03:30:45.810Z,19.35
2019-05-06T03:33:38.460Z,19.85
2019-05-06T03:36:00.386Z,19.00
2019-05-06T03:38:16.804Z,34.67
2019-05-06T03:40:46.196Z,26.82
2019-05-06T03:43:16.110Z,30.57
2019-05-06T03:45:53.501Z,26.42
2019-05-06T03:48:33.343Z,20.80
2019-05-06T03:51:04.030Z,24.10
2019-05-06T03:53:35.753Z,24.52
2019-05-06T03:56:06.111Z,24.77
2019-05-06T03:58:37.692Z,26.55
2019-05-06T04:01:07.069Z,22.30
2019-05-06T04:03:47.340Z,25.37
2019-05-06T04:06:09.149Z,23.40
2019-05-06T04:08:38.754Z,21.90
2019-05-06T04:11:09.661Z,23.92
2019-05-06T04:13:39.159Z,20.20
2019-05-06T04:16:22.810Z,21.50
2019-05-06T04:19:08.764Z,21.37
2019-05-06T04:21:58.149Z,18.48
2019-05-06T04:24:45.762Z,20.57
2019-05-06T04:27:29.560Z,22.15
2019-05-06T04:29:59.660Z,28.45
2019-05-06T04:32:29.023Z,24.92
2019-05-06T04:34:58.898Z,23.47
2019-05-06T04:37:28.344Z,23.02
2019-05-06T04:39:57.839Z,24.32
2019-05-06T04:42:27.218Z,20.15
2019-05-06T04:44:57.820Z,24.02
2019-05-06T04:47:27.169Z,19.62
2019-05-06T04:49:56.587Z,21.17
2019-05-06T04:52:26.320Z,21.87
2019-05-06T04:54:55.830Z,24.90
2019-05-06T04:57:25.264Z,26.95
2019-05-06T04:59:55.119Z,19.60
2019-05-06T05:02:24.559Z,23.38
2019-05-06T05:04:53.927Z,21.12
2019-05-06T05:07:23.404Z,21.37
2019-05-06T05:09:54.641Z,23.12
2019-05-06T05:12:25.643Z,24.30
2019-05-06T05:14:56.723Z,23.67
2019-05-06T05:17:39.615Z,22.73
2019-05-06T05:20:09.419Z,27.85
2019-05-06T05:22:39.034Z,21.77
2019-05-06T05:25:08.462Z,17.98
2019-05-06T05:27:37.910Z,28.12
2019-05-06T05:30:07.693Z,20.17
2019-05-06T05:32:37.124Z,29.35
2019-05-06T05:35:06.732Z,18.65
2019-05-06T05:37:37.298Z,23.93
2019-05-06T05:40:06.806Z,20.70
2019-05-06T05:42:42.269Z,21.12
2019-05-06T05:45:13.193Z,20.97
2019-05-06T05:47:42.632Z,20.97
2019-05-06T05:50:16.545Z,23.32
2019-05-06T05:52:45.911Z,19.85
2019-05-06T05:55:15.247Z,24.07
2019-05-06T05:57:44.671Z,22.32
2019-05-06T06:00:15.264Z,17.55
2019-05-06T06:02:44.645Z,25.27
2019-05-06T06:05:14.211Z,19.05
2019-05-06T06:07:43.667Z,20.70
2019-05-06T06:10:26.633Z,25.25
2019-05-06T06:12:57.693Z,25.68
2019-05-06T06:15:32.919Z,26.05
2019-05-06T06:18:22.434Z,25.60
2019-05-06T06:20:59.355Z,23.35
2019-05-06T06:23:36.442Z,29.85
2019-05-06T06:26:05.910Z,22.30
2019-05-06T06:28:35.418Z,23.90
2019-05-06T06:31:23.014Z,22.55
2019-05-06T06:33:54.222Z,21.50
2019-05-06T06:36:27.904Z,24.10
2019-05-06T06:39:02.222Z,31.35
2019-05-06T06:41:33.235Z,29.85
2019-05-06T06:44:04.288Z,22.85
2019-05-06T06:46:33.707Z,26.40
2019-05-06T06:49:03.436Z,26.42
2019-05-06T06:51:33.143Z,28.60
2019-05-06T06:54:02.691Z,24.65
2019-05-06T06:56:43.688Z,25.40
2019-05-06T06:59:24.442Z,22.43
2019-05-06T07:02:05.379Z,30.65
2019-05-06T07:04:36.401Z,25.48
2019-05-06T07:07:06.041Z,30.90
2019-05-06T07:09:35.413Z,35.25
2019-05-06T07:12:04.861Z,23.40
2019-05-06T07:14:36.200Z,25.70
2019-05-06T07:17:05.399Z,22.62
2019-05-06T07:19:36.401Z,17.98
2019-05-06T07:22:06.950Z,19.87
2019-05-06T07:24:36.725Z,23.87
2019-05-06T07:27:12.482Z,14.55
2019-05-06T07:29:48.120Z,13.20
2019-05-06T07:32:12.712Z,10.87
2019-05-06T07:34:42.174Z,11.35
2019-05-06T07:37:12.497Z,10.25
2019-05-06T07:39:43.102Z,9.95
2019-05-06T07:42:14.318Z,10.83
2019-05-06T07:44:52.908Z,12.60
2019-05-06T07:47:26.233Z,11.97
2019-05-06T07:49:55.875Z,9.58
2019-05-06T07:52:25.284Z,13.85
2019-05-06T07:54:54.648Z,7.17
2019-05-06T07:57:24.086Z,9.63
2019-05-06T07:59:53.474Z,12.63
2019-05-06T08:02:23.133Z,11.43
2019-05-06T08:04:53.260Z,11.35
2019-05-06T08:07:22.735Z,17.82
2019-05-06T08:09:53.066Z,19.40
2019-05-06T08:14:52.520Z,18.25
2019-05-06T08:17:23.678Z,17.92
2019-05-06T08:19:53.095Z,17.37
2019-05-06T08:22:42.268Z,19.35
2019-05-06T08:25:12.233Z,21.43
2019-05-06T08:27:42.741Z,21.50
2019-05-06T08:30:13.032Z,25.05
2019-05-06T08:32:42.624Z,32.23
2019-05-06T08:35:14.122Z,27.67
2019-05-06T08:37:44.710Z,26.85
2019-05-06T08:40:15.216Z,23.40
2019-05-06T08:42:44.847Z,32.88
2019-05-06T08:45:14.529Z,35.70
2019-05-06T08:47:46.711Z,28.10
2019-05-06T08:50:23.779Z,31.52
2019-05-06T08:52:57.726Z,29.72
2019-05-06T08:55:44.758Z,34.60
2019-05-06T08:58:15.183Z,29.75
2019-05-06T09:00:46.228Z,31.68
2019-05-06T09:03:15.635Z,31.52
2019-05-06T09:05:55.330Z,29.55
2019-05-06T09:08:25.136Z,29.65
2019-05-06T09:10:54.584Z,28.17
2019-05-06T09:13:23.963Z,28.00
2019-05-06T09:15:53.318Z,25.95
2019-05-06T09:18:24.101Z,27.98
2019-05-06T09:20:53.798Z,31.60
2019-05-06T09:23:27.431Z,37.80
2019-05-06T09:25:58.853Z,24.63
2019-05-06T09:28:45.179Z,41.90
2019-05-06T09:31:19.220Z,24.77
2019-05-06T09:33:53.146Z,29.57
2019-05-06T09:36:22.930Z,34.27
2019-05-06T09:38:53.081Z,32.83
2019-05-06T09:41:23.191Z,27.62
2019-05-06T09:43:52.917Z,32.10
2019-05-06T09:46:23.098Z,26.95
2019-05-06T09:49:12.847Z,29.37
2019-05-06T09:51:42.590Z,33.58
2019-05-06T09:54:19.819Z,39.27
2019-05-06T09:56:53.825Z,33.38
2019-05-06T09:59:23.480Z,34.20
2019-05-06T10:01:52.991Z,36.17
2019-05-06T10:04:22.322Z,33.10
2019-05-06T10:06:57.213Z,34.20
2019-05-06T10:09:24.882Z,35.83
2019-05-06T10:11:54.086Z,28.37
2019-05-06T10:14:23.604Z,32.53
2019-05-06T10:16:52.949Z,38.13
2019-05-06T10:19:22.799Z,33.55
2019-05-06T10:21:53.486Z,38.43
2019-05-06T10:24:23.082Z,35.03
2019-05-06T10:26:54.234Z,40.80
2019-05-06T10:29:28.266Z,29.80
2019-05-06T10:32:01.925Z,27.45
2019-05-06T10:34:32.792Z,37.03
2019-05-06T10:37:22.008Z,38.45
2019-05-06T10:39:57.217Z,30.17
2019-05-06T10:42:35.324Z,31.30
2019-05-06T10:45:12.367Z,37.85
2019-05-06T10:47:42.371Z,39.55
2019-05-06T10:50:12.558Z,34.35
2019-05-06T10:53:02.726Z,30.25
2019-05-06T10:55:33.390Z,30.35
2019-05-06T10:58:02.939Z,31.77
2019-05-06T11:00:33.216Z,31.02
2019-05-06T11:03:14.488Z,36.28
2019-05-06T11:05:43.117Z,31.55
2019-05-06T11:08:14.470Z,35.00
2019-05-06T11:10:45.316Z,32.80
2019-05-06T11:13:15.334Z,26.03
2019-05-06T11:15:44.986Z,21.05
2019-05-06T11:18:14.427Z,24.98
2019-05-06T11:20:44.256Z,26.35
2019-05-06T11:23:14.356Z,30.95
2019-05-06T11:25:44.083Z,41.75
2019-05-06T11:28:34.860Z,30.90
2019-05-06T11:31:04.070Z,33.20
2019-05-06T11:33:37.936Z,30.83
2019-05-06T11:36:09.050Z,25.97
2019-05-06T11:38:38.483Z,44.97
2019-05-06T11:41:07.882Z,28.57
2019-05-06T11:43:37.328Z,20.60
2019-05-06T11:46:06.683Z,22.02
2019-05-06T11:48:36.126Z,20.88
2019-05-06T11:51:07.240Z,22.10
2019-05-06T11:53:36.600Z,23.03
2019-05-06T11:56:06.138Z,32.53
2019-05-06T11:58:42.503Z,22.82
2019-05-06T12:01:13.477Z,20.00
2019-05-06T12:03:44.666Z,29.63
2019-05-06T12:06:14.096Z,21.42
2019-05-06T12:08:43.513Z,19.42
2019-05-06T12:11:12.927Z,17.98
2019-05-06T12:13:43.195Z,16.75
2019-05-06T12:16:14.164Z,16.20
2019-05-06T12:18:44.052Z,14.97
2019-05-06T12:21:19.095Z,19.40
2019-05-06T12:23:45.091Z,16.07
2019-05-06T12:26:14.599Z,15.50
2019-05-06T12:28:45.532Z,20.65
2019-05-06T12:31:14.892Z,20.50
2019-05-06T12:33:45.935Z,19.52
2019-05-06T12:36:17.159Z,19.93
2019-05-06T12:39:06.682Z,21.63
2019-05-06T12:41:37.238Z,25.03
2019-05-06T12:44:07.173Z,31.30
2019-05-06T12:46:44.069Z,28.12
2019-05-06T12:49:13.472Z,26.95
2019-05-06T12:51:45.770Z,32.20
2019-05-06T12:54:15.177Z,32.48
2019-05-06T12:56:44.636Z,27.98
2019-05-06T12:59:15.383Z,22.62
2019-05-06T13:01:45.813Z,24.57
2019-05-06T13:04:15.485Z,23.57
2019-05-06T13:06:48.840Z,19.30
2019-05-06T13:09:18.273Z,19.80
2019-05-06T13:11:48.690Z,22.42
2019-05-06T13:14:18.079Z,22.00
2019-05-06T13:16:47.596Z,24.80
2019-05-06T13:19:19.234Z,21.77
2019-05-06T13:24:18.015Z,24.17
2019-05-06T13:26:52.812Z,27.80
2019-05-06T13:29:24.531Z,30.90
2019-05-06T13:34:23.567Z,21.90
2019-05-06T13:36:53.594Z,21.85
2019-05-06T13:39:23.885Z,19.60
2019-05-06T13:41:53.769Z,24.18
2019-05-06T13:44:23.142Z,25.35
2019-05-06T13:46:53.511Z,21.87
2019-05-06T13:49:24.814Z,16.73
2019-05-06T13:52:06.827Z,13.53
2019-05-06T13:54:36.401Z,10.60
2019-05-06T13:57:05.761Z,12.88
2019-05-06T13:59:36.799Z,14.68
2019-05-06T14:02:08.375Z,15.07
2019-05-06T14:04:38.042Z,18.57
2019-05-06T14:07:07.625Z,19.92
2019-05-06T14:09:43.353Z,21.62
2019-05-06T14:12:11.449Z,25.10
2019-05-06T14:14:42.969Z,20.32
2019-05-06T14:17:12.705Z,17.27
2019-05-06T14:19:43.064Z,15.55
2019-05-06T14:22:12.776Z,18.95
2019-05-06T14:24:43.889Z,17.50
2019-05-06T14:27:14.996Z,23.97
2019-05-06T14:29:46.238Z,16.95
2019-05-06T14:32:15.606Z,23.55
2019-05-06T14:34:45.088Z,23.15
2019-05-06T14:37:14.529Z,24.60
2019-05-06T14:39:55.420Z,22.87
2019-05-06T14:42:19.272Z,24.57
2019-05-06T14:44:48.638Z,25.65
2019-05-06T14:47:23.290Z,25.92
2019-05-06T14:49:53.231Z,20.27
2019-05-06T14:52:22.906Z,17.07
2019-05-06T14:54:54.046Z,21.75
2019-05-06T14:57:24.574Z,20.10
2019-05-06T14:59:55.685Z,21.33
2019-05-06T15:02:27.167Z,19.10
2019-05-06T15:04:57.935Z,26.60
2019-05-06T15:07:27.380Z,17.73
2019-05-06T15:10:15.605Z,21.07
2019-05-06T15:12:27.866Z,17.03
2019-05-06T15:14:57.256Z,17.05
2019-05-06T15:17:26.716Z,13.93
2019-05-06T15:19:56.257Z,16.93
2019-05-06T15:22:25.622Z,16.85
2019-05-06T15:24:55.073Z,18.25
2019-05-06T15:27:26.069Z,19.35
2019-05-06T15:29:59.674Z,16.48
2019-05-06T15:32:30.705Z,11.93
2019-05-06T15:35:19.284Z,14.37
2019-05-06T15:37:53.147Z,13.00
2019-05-06T15:40:32.148Z,10.00
2019-05-06T15:42:53.414Z,9.85
2019-05-06T15:45:23.108Z,8.75
2019-05-06T15:47:52.565Z,11.35
2019-05-06T15:50:23.088Z,11.40
2019-05-06T15:53:01.994Z,11.35
2019-05-06T15:55:32.690Z,11.40
2019-05-06T15:58:03.498Z,9.33
2019-05-06T16:00:35.108Z,11.53
2019-05-06T16:03:04.634Z,11.20
2019-05-06T16:05:34.483Z,12.58
2019-05-06T16:08:05.477Z,12.78
2019-05-06T16:10:51.256Z,10.88
2019-05-06T16:13:07.505Z,9.13
2019-05-06T16:15:36.958Z,13.05
2019-05-06T16:18:06.342Z,15.40
2019-05-06T16:20:35.792Z,11.57
2019-05-06T16:23:13.179Z,11.90
2019-05-06T16:25:44.852Z,13.65
2019-05-06T16:28:13.816Z,13.10
2019-05-06T16:30:43.251Z,15.45
2019-05-06T16:33:14.977Z,13.78
2019-05-06T16:35:43.803Z,11.00
2019-05-06T16:38:13.321Z,12.10
2019-05-06T16:40:45.728Z,12.95
2019-05-06T16:43:16.743Z,9.85
2019-05-06T16:45:46.163Z,10.45
2019-05-06T16:48:15.609Z,10.40
2019-05-06T16:50:46.052Z,12.20
2019-05-06T16:53:15.536Z,11.57
2019-05-06T16:55:55.353Z,11.28
2019-05-06T16:58:42.915Z,10.88
2019-05-06T17:01:14.942Z,11.95
2019-05-06T17:03:47.030Z,11.10
2019-05-06T17:06:18.076Z,13.22
2019-05-06T17:08:47.510Z,14.18
2019-05-06T17:11:26.870Z,14.55
2019-05-06T17:13:48.118Z,13.83
2019-05-06T17:16:17.879Z,14.50
2019-05-06T17:18:47.364Z,12.40
2019-05-06T17:21:16.809Z,17.45
2019-05-06T17:23:46.308Z,13.35
2019-05-06T17:26:15.791Z,15.20
2019-05-06T17:28:54.292Z,15.05
2019-05-06T17:31:28.003Z,17.12
2019-05-06T17:34:15.697Z,14.15
2019-05-06T17:36:45.443Z,18.70
2019-05-06T17:39:14.899Z,11.83
2019-05-06T17:41:48.536Z,14.05
2019-05-06T17:44:15.328Z,12.47
2019-05-06T17:46:46.421Z,11.25
2019-05-06T17:49:22.952Z,15.87
2019-05-06T17:52:02.965Z,15.70
2019-05-06T17:54:32.659Z,19.87
2019-05-06T17:57:05.190Z,21.47
2019-05-06T18:02:19.309Z,23.42
2019-05-06T18:04:48.784Z,20.15
2019-05-06T18:07:18.148Z,23.55
2019-05-06T18:09:47.636Z,27.73
2019-05-06T18:12:18.720Z,27.60
2019-05-06T18:14:48.138Z,26.85
2019-05-06T18:17:17.577Z,24.57
2019-05-06T18:19:46.993Z,28.67
2019-05-06T18:22:16.355Z,25.48
2019-05-06T18:24:48.639Z,24.87
2019-05-06T18:27:18.101Z,28.27
2019-05-06T18:29:47.464Z,26.80
2019-05-06T18:32:17.275Z,25.60
2019-05-06T18:34:48.330Z,29.65
2019-05-06T18:37:17.676Z,26.63
2019-05-06T18:39:47.105Z,27.58
2019-05-06T18:42:20.155Z,30.43
2019-05-06T18:44:47.511Z,28.12
2019-05-06T18:47:16.936Z,36.15
2019-05-06T18:49:47.455Z,34.73
2019-05-06T18:52:16.963Z,33.65
2019-05-06T18:54:46.527Z,30.68
2019-05-06T18:57:15.891Z,30.05
2019-05-06T18:59:45.460Z,25.55
2019-05-06T19:02:15.139Z,29.37
2019-05-06T19:04:49.045Z,31.05
2019-05-06T19:07:18.427Z,28.85
2019-05-06T19:09:52.680Z,32.33
2019-05-06T19:12:30.506Z,28.27
2019-05-06T19:14:53.358Z,26.45
2019-05-06T19:17:22.892Z,29.13
2019-05-06T19:19:52.311Z,32.95
2019-05-06T19:22:22.933Z,24.37
2019-05-06T19:24:52.551Z,30.83
2019-05-06T19:27:24.646Z,26.77
2019-05-06T19:29:54.717Z,23.00
2019-05-06T19:32:25.249Z,19.80
2019-05-06T19:34:54.614Z,20.23
2019-05-06T19:37:24.295Z,23.40
2019-05-06T19:39:53.775Z,22.55
2019-05-06T19:42:23.168Z,22.03
2019-05-06T19:44:53.051Z,22.22
2019-05-06T19:47:22.572Z,19.32
2019-05-06T19:49:53.259Z,25.12
2019-05-06T19:52:24.973Z,22.03
2019-05-06T19:54:55.536Z,24.13
2019-05-06T19:57:25.079Z,19.07
2019-05-06T19:59:54.569Z,19.90
2019-05-06T20:02:25.810Z,21.85
2019-05-06T20:04:57.076Z,22.17
2019-05-06T20:07:30.985Z,17.20
2019-05-06T20:10:18.601Z,15.75
2019-05-06T20:13:04.856Z,22.65
2019-05-06T20:18:15.613Z,21.83
2019-05-06T20:20:46.682Z,19.65
2019-05-06T20:23:16.108Z,18.00
2019-05-06T20:25:45.480Z,16.27
2019-05-06T20:28:14.856Z,16.82
2019-05-06T20:30:44.235Z,18.73
2019-05-06T20:33:13.784Z,17.42
2019-05-06T20:35:43.461Z,16.62
2019-05-06T20:38:12.914Z,21.87
2019-05-06T20:40:43.128Z,14.87
2019-05-06T20:43:20.218Z,17.10
2019-05-06T20:45:44.082Z,15.90
2019-05-06T20:48:13.450Z,17.70
2019-05-06T20:50:43.071Z,19.60
2019-05-06T20:53:12.861Z,20.12
2019-05-06T20:55:43.444Z,23.18
2019-05-06T20:58:13.051Z,19.43
2019-05-06T21:00:43.139Z,23.70
2019-05-06T21:03:12.746Z,18.25
2019-05-06T21:05:43.470Z,20.02
2019-05-06T21:08:14.336Z,19.57
2019-05-06T21:10:44.105Z,20.52
2019-05-06T21:13:21.993Z,26.42
2019-05-06T21:15:44.653Z,20.10
2019-05-06T21:18:14.194Z,20.27
2019-05-06T21:20:43.771Z,19.60
2019-05-06T21:23:13.199Z,24.70
2019-05-06T21:25:43.726Z,21.77
2019-05-06T21:28:13.208Z,25.48
2019-05-06T21:30:42.984Z,21.37
2019-05-06T21:33:12.664Z,26.97
2019-05-06T21:35:42.513Z,24.87
2019-05-06T21:38:13.745Z,22.57
2019-05-06T21:40:43.519Z,23.97
2019-05-06T21:43:13.221Z,20.05
2019-05-06T21:45:42.954Z,23.27
2019-05-06T21:48:13.688Z,20.72
2019-05-06T21:50:43.354Z,20.63
2019-05-06T21:53:14.712Z,27.00
2019-05-06T21:55:43.876Z,23.62
2019-05-06T21:58:13.289Z,22.58
2019-05-06T22:00:44.558Z,21.85
2019-05-06T22:03:14.201Z,21.85
2019-05-06T22:05:43.576Z,24.47
2019-05-06T22:08:13.077Z,25.27
2019-05-06T22:10:42.545Z,29.25
2019-05-06T22:13:12.592Z,22.55
2019-05-06T22:15:44.491Z,26.57
2019-05-06T22:18:13.858Z,21.23
2019-05-06T22:21:02.951Z,24.92
2019-05-06T22:23:50.248Z,24.75
2019-05-06T22:26:19.744Z,23.90
2019-05-06T22:28:49.117Z,25.40
2019-05-06T22:31:18.660Z,23.62
2019-05-06T22:33:48.287Z,24.37
2019-05-06T22:36:17.643Z,26.52
2019-05-06T22:38:47.007Z,26.33
2019-05-06T22:41:16.355Z,30.30
2019-05-06T22:43:45.709Z,25.60
2019-05-06T22:46:18.128Z,26.55
2019-05-06T22:48:46.147Z,29.27
2019-05-06T22:51:15.527Z,23.70
2019-05-06T22:54:05.736Z,23.02
2019-05-06T22:56:35.098Z,26.77
2019-05-06T22:59:04.443Z,22.67
2019-05-06T23:01:35.482Z,26.65
2019-05-06T23:04:06.598Z,31.23
2019-05-06T23:06:36.042Z,24.65
2019-05-06T23:09:09.019Z,24.60
2019-05-06T23:11:38.919Z,23.85
2019-05-06T23:14:09.233Z,27.13
2019-05-06T23:16:38.646Z,23.15
2019-05-06T23:19:08.048Z,27.90
2019-05-06T23:21:37.390Z,24.85
2019-05-06T23:24:08.284Z,25.50
2019-05-06T23:26:38.754Z,25.40
2019-05-06T23:29:08.202Z,32.10
2019-05-06T23:31:37.819Z,25.12
2019-05-06T23:34:07.188Z,26.60
2019-05-06T23:36:58.946Z,27.58
2019-05-06T23:40:06.094Z,26.65
2019-05-06T23:43:12.642Z,27.50
2019-05-06T23:46:18.487Z,27.52
2019-05-06T23:49:24.058Z,30.00
2019-05-06T23:52:31.889Z,25.32
2019-05-06T23:55:37.200Z,29.32
2019-05-06T23:58:05.503Z,28.27
